createdAt,value
2019-01-18T00:02:25.293Z,6.00
2019-01-18T00:04:55.471Z,7.40
2019-01-18T00:07:25.571Z,7.60
2019-01-18T00:09:56.097Z,5.90
2019-01-18T00:12:26.892Z,6.00
2019-01-18T00:14:56.982Z,4.83
2019-01-18T00:17:27.224Z,9.50
2019-01-18T00:19:57.708Z,5.70
2019-01-18T00:22:27.719Z,5.60
2019-01-18T00:24:58.100Z,5.20
2019-01-18T00:27:28.060Z,5.83
2019-01-18T00:29:58.721Z,6.13
2019-01-18T00:32:29.084Z,5.53
2019-01-18T00:34:59.053Z,7.87
2019-01-18T00:37:29.265Z,8.07
2019-01-18T00:39:59.763Z,3.60
2019-01-18T00:42:30.132Z,5.03
2019-01-18T00:45:00.449Z,5.63
2019-01-18T00:47:30.848Z,6.03
2019-01-18T00:50:01.196Z,6.23
2019-01-18T00:52:31.139Z,4.70
2019-01-18T00:55:01.272Z,9.47
2019-01-18T00:57:31.264Z,4.20
2019-01-18T01:00:01.279Z,3.97
2019-01-18T01:02:32.084Z,4.17
2019-01-18T01:05:02.567Z,5.30
2019-01-18T01:07:32.764Z,3.70
2019-01-18T01:10:02.939Z,6.27
2019-01-18T01:12:33.202Z,3.50
2019-01-18T01:15:04.428Z,7.10
2019-01-18T01:17:35.356Z,6.77
2019-01-18T01:20:06.720Z,6.00
2019-01-18T01:22:36.884Z,6.00
2019-01-18T01:25:07.675Z,4.67
2019-01-18T01:27:37.920Z,6.60
2019-01-18T01:30:12.323Z,6.70
2019-01-18T01:32:42.259Z,9.37
2019-01-18T01:35:13.067Z,7.70
2019-01-18T01:37:43.187Z,5.30
2019-01-18T01:40:16.012Z,6.63
2019-01-18T01:42:46.556Z,8.20
2019-01-18T01:45:17.440Z,5.27
2019-01-18T01:47:47.683Z,7.20
2019-01-18T01:50:20.967Z,5.17
2019-01-18T01:52:51.020Z,4.33
2019-01-18T01:55:21.645Z,5.23
2019-01-18T01:57:52.155Z,7.67
2019-01-18T02:00:24.670Z,4.57
2019-01-18T02:02:55.143Z,4.30
2019-01-18T02:05:25.296Z,5.03
2019-01-18T02:07:55.416Z,7.47
2019-01-18T02:10:25.548Z,7.83
2019-01-18T02:12:55.784Z,3.93
2019-01-18T02:15:27.855Z,4.97
2019-01-18T02:17:58.091Z,6.93
2019-01-18T02:20:28.168Z,3.63
2019-01-18T02:22:58.708Z,5.87
2019-01-18T02:25:29.079Z,5.50
2019-01-18T02:27:59.072Z,4.30
2019-01-18T02:30:29.994Z,3.93
2019-01-18T02:33:00.572Z,4.33
2019-01-18T02:35:30.729Z,3.10
2019-01-18T02:38:00.865Z,4.80
2019-01-18T02:40:31.829Z,5.10
2019-01-18T02:43:01.906Z,3.90
2019-01-18T02:45:32.020Z,5.63
2019-01-18T02:48:02.769Z,9.60
2019-01-18T02:50:33.233Z,3.90
2019-01-18T02:53:03.318Z,4.57
2019-01-18T02:55:33.990Z,4.90
2019-01-18T02:58:04.303Z,4.50
2019-01-18T03:00:34.598Z,3.53
2019-01-18T03:03:05.862Z,3.13
2019-01-18T03:05:36.104Z,3.10
2019-01-18T03:08:06.370Z,3.37
2019-01-18T03:10:36.641Z,3.50
2019-01-18T03:13:07.153Z,5.00
2019-01-18T03:15:37.162Z,6.40
2019-01-18T03:18:07.568Z,2.83
2019-01-18T03:20:37.789Z,3.90
2019-01-18T03:23:08.009Z,2.77
2019-01-18T03:25:38.349Z,2.70
2019-01-18T03:28:09.248Z,7.00
2019-01-18T03:30:39.502Z,4.20
2019-01-18T03:33:09.707Z,4.13
2019-01-18T03:35:39.852Z,3.03
2019-01-18T03:38:09.955Z,5.10
2019-01-18T03:40:40.527Z,7.77
2019-01-18T03:43:11.396Z,2.80
2019-01-18T03:45:41.718Z,2.30
2019-01-18T03:48:11.853Z,3.13
2019-01-18T03:50:42.161Z,2.67
2019-01-18T03:53:12.262Z,7.30
2019-01-18T03:55:42.533Z,2.57
2019-01-18T03:58:12.961Z,3.90
2019-01-18T04:00:43.130Z,5.97
2019-01-18T04:03:13.356Z,3.07
2019-01-18T04:05:43.520Z,3.20
2019-01-18T04:08:13.641Z,4.13
2019-01-18T04:10:43.763Z,3.47
2019-01-18T04:13:13.982Z,4.23
2019-01-18T04:15:44.476Z,2.83
2019-01-18T04:18:14.625Z,3.80
2019-01-18T04:20:44.856Z,3.23
2019-01-18T04:23:15.003Z,4.37
2019-01-18T04:25:45.377Z,5.37
2019-01-18T04:28:15.448Z,2.33
2019-01-18T04:30:46.045Z,4.33
2019-01-18T04:33:16.252Z,4.90
2019-01-18T04:35:46.469Z,3.00
2019-01-18T04:38:16.638Z,2.57
2019-01-18T04:40:46.886Z,2.53
2019-01-18T04:43:17.055Z,3.03
2019-01-18T04:45:47.777Z,6.33
2019-01-18T04:48:18.000Z,2.10
2019-01-18T04:50:47.956Z,2.97
2019-01-18T04:53:18.103Z,2.67
2019-01-18T04:55:48.623Z,3.93
2019-01-18T04:58:18.725Z,5.13
2019-01-18T05:00:49.345Z,7.23
2019-01-18T05:03:19.621Z,3.00
2019-01-18T05:05:49.801Z,2.77
2019-01-18T05:08:19.952Z,2.63
2019-01-18T05:10:50.263Z,3.37
2019-01-18T05:13:20.291Z,4.70
2019-01-18T05:15:50.785Z,3.43
2019-01-18T05:18:21.104Z,4.40
2019-01-18T05:20:51.346Z,2.90
2019-01-18T05:23:21.555Z,2.60
2019-01-18T05:25:51.779Z,4.80
2019-01-18T05:28:21.821Z,3.37
2019-01-18T05:30:52.387Z,8.07
2019-01-18T05:33:23.041Z,5.77
2019-01-18T05:35:53.246Z,3.50
2019-01-18T05:38:23.316Z,6.20
2019-01-18T05:40:53.858Z,7.10
2019-01-18T05:43:24.052Z,10.47
2019-01-18T05:45:54.763Z,6.63
2019-01-18T05:48:24.948Z,9.30
2019-01-18T05:50:55.209Z,7.17
2019-01-18T05:53:25.481Z,11.10
2019-01-18T05:55:55.984Z,9.30
2019-01-18T05:58:26.132Z,7.60
2019-01-18T06:01:05.582Z,8.83
2019-01-18T06:03:35.945Z,8.27
2019-01-18T06:06:06.634Z,9.73
2019-01-18T06:08:37.097Z,7.80
2019-01-18T06:11:07.273Z,6.80
2019-01-18T06:13:37.564Z,7.97
2019-01-18T06:16:09.367Z,9.57
2019-01-18T06:18:39.486Z,11.40
2019-01-18T06:21:09.709Z,7.87
2019-01-18T06:23:40.305Z,6.43
2019-01-18T06:26:10.515Z,10.07
2019-01-18T06:28:40.625Z,5.80
2019-01-18T06:31:11.050Z,9.00
2019-01-18T06:33:41.531Z,8.00
2019-01-18T06:36:11.776Z,5.70
2019-01-18T06:38:42.164Z,7.10
2019-01-18T06:41:40.357Z,5.80
2019-01-18T06:44:10.888Z,9.07
2019-01-18T06:46:41.215Z,6.33
2019-01-18T06:49:12.450Z,12.77
2019-01-18T06:51:42.670Z,4.77
2019-01-18T06:54:13.940Z,6.70
2019-01-18T06:56:44.011Z,8.50
2019-01-18T06:59:14.364Z,4.13
2019-01-18T07:01:44.555Z,8.20
2019-01-18T07:04:15.196Z,8.40
2019-01-18T07:06:45.518Z,8.07
2019-01-18T07:09:15.787Z,4.00
2019-01-18T07:11:45.861Z,4.30
2019-01-18T07:14:16.630Z,4.37
2019-01-18T07:16:46.989Z,8.93
2019-01-18T07:19:17.279Z,6.23
2019-01-18T07:21:47.421Z,10.03
2019-01-18T07:24:17.478Z,9.67
2019-01-18T07:26:47.643Z,6.60
2019-01-18T07:29:18.325Z,5.03
2019-01-18T07:31:48.570Z,5.37
2019-01-18T07:34:18.845Z,5.73
2019-01-18T07:36:49.502Z,4.27
2019-01-18T07:39:22.461Z,8.63
2019-01-18T07:41:51.518Z,6.27
2019-01-18T07:44:21.846Z,7.00
2019-01-18T07:46:51.953Z,7.57
2019-01-18T07:49:22.062Z,5.30
2019-01-18T07:51:52.897Z,8.10
2019-01-18T07:54:23.082Z,6.93
2019-01-18T07:56:57.362Z,10.50
2019-01-18T07:59:27.844Z,6.53
2019-01-18T08:01:59.554Z,6.93
2019-01-18T08:04:30.197Z,5.70
2019-01-18T08:07:00.552Z,7.03
2019-01-18T08:09:31.100Z,7.93
2019-01-18T08:12:01.508Z,13.27
2019-01-18T08:14:31.769Z,8.70
2019-01-18T08:17:02.441Z,8.27
2019-01-18T08:19:32.626Z,8.23
2019-01-18T08:22:03.105Z,7.50
2019-01-18T08:24:33.264Z,6.87
2019-01-18T08:27:03.665Z,7.30
2019-01-18T08:29:34.082Z,8.07
2019-01-18T08:32:04.047Z,9.30
2019-01-18T08:34:34.413Z,6.53
2019-01-18T08:37:04.507Z,6.73
2019-01-18T08:39:34.518Z,4.70
2019-01-18T08:42:05.584Z,4.93
2019-01-18T08:44:35.828Z,8.87
2019-01-18T08:47:05.992Z,6.40
2019-01-18T08:49:36.530Z,7.50
2019-01-18T08:52:07.071Z,10.30
2019-01-18T08:54:38.385Z,8.40
2019-01-18T08:57:18.573Z,14.13
2019-01-18T08:59:48.454Z,7.40
2019-01-18T09:02:18.870Z,8.83
2019-01-18T09:04:49.661Z,11.47
2019-01-18T09:07:29.145Z,8.83
2019-01-18T09:09:59.570Z,9.90
2019-01-18T09:15:01.873Z,15.90
2019-01-18T09:17:32.243Z,11.33
2019-01-18T09:20:02.548Z,20.00
2019-01-18T09:22:34.008Z,12.23
2019-01-18T09:25:04.454Z,5.27
2019-01-18T09:27:34.681Z,5.40
2019-01-18T09:30:06.045Z,4.60
2019-01-18T09:32:36.372Z,8.23
2019-01-18T09:35:08.594Z,8.43
2019-01-18T09:37:39.178Z,6.30
2019-01-18T09:40:13.686Z,6.60
2019-01-18T09:42:43.947Z,4.90
2019-01-18T09:45:15.426Z,4.27
2019-01-18T09:47:45.656Z,4.67
2019-01-18T09:50:17.943Z,6.10
2019-01-18T09:52:48.331Z,8.53
2019-01-18T09:55:19.066Z,4.63
2019-01-18T09:57:49.273Z,6.10
2019-01-18T10:00:24.865Z,9.40
2019-01-18T10:02:55.390Z,6.80
2019-01-18T10:05:25.690Z,3.77
2019-01-18T10:07:56.628Z,4.77
2019-01-18T10:10:27.674Z,3.80
2019-01-18T10:12:58.196Z,3.60
2019-01-18T10:15:48.557Z,3.40
2019-01-18T10:18:18.930Z,5.17
2019-01-18T10:20:49.445Z,4.03
2019-01-18T10:23:19.890Z,3.63
2019-01-18T10:25:50.232Z,3.30
2019-01-18T10:28:20.951Z,6.40
2019-01-18T10:30:51.466Z,4.80
2019-01-18T10:33:21.703Z,6.13
2019-01-18T10:35:55.620Z,5.70
2019-01-18T10:38:25.941Z,5.03
2019-01-18T10:40:56.478Z,5.10
2019-01-18T10:43:26.804Z,5.30
2019-01-18T10:45:57.077Z,3.40
2019-01-18T10:48:27.678Z,3.90
2019-01-18T10:50:57.929Z,3.30
2019-01-18T10:53:28.140Z,4.10
2019-01-18T10:55:58.557Z,3.40
2019-01-18T10:58:28.890Z,6.23
2019-01-18T11:00:59.025Z,3.83
2019-01-18T11:03:32.214Z,4.17
2019-01-18T11:06:02.352Z,2.40
2019-01-18T11:08:32.509Z,3.73
2019-01-18T11:11:02.743Z,4.33
2019-01-18T11:13:34.921Z,5.00
2019-01-18T11:16:05.019Z,3.50
2019-01-18T11:18:35.335Z,3.67
2019-01-18T11:21:23.350Z,3.67
2019-01-18T11:23:54.896Z,7.73
2019-01-18T11:26:26.219Z,5.60
2019-01-18T11:28:56.901Z,4.33
2019-01-18T11:31:34.438Z,6.17
2019-01-18T11:34:05.704Z,2.90
2019-01-18T11:36:35.993Z,4.27
2019-01-18T11:39:07.419Z,3.67
2019-01-18T11:41:37.777Z,2.50
2019-01-18T11:44:08.093Z,4.00
2019-01-18T11:46:38.405Z,3.10
2019-01-18T11:49:10.078Z,5.70
2019-01-18T11:51:40.449Z,3.40
2019-01-18T11:54:10.687Z,3.43
2019-01-18T11:56:41.126Z,10.90
2019-01-18T11:59:11.311Z,4.60
2019-01-18T12:01:41.470Z,5.73
2019-01-18T12:04:12.159Z,6.43
2019-01-18T12:06:42.294Z,3.10
2019-01-18T12:09:12.603Z,3.50
2019-01-18T12:11:42.658Z,3.17
2019-01-18T12:14:12.793Z,4.13
2019-01-18T12:16:43.070Z,3.40
2019-01-18T12:19:14.113Z,6.07
2019-01-18T12:21:44.470Z,6.13
2019-01-18T12:24:14.916Z,3.13
2019-01-18T12:26:45.813Z,6.07
2019-01-18T12:29:16.342Z,3.07
2019-01-18T12:31:46.541Z,5.13
2019-01-18T12:34:17.375Z,4.47
2019-01-18T12:36:47.519Z,3.43
2019-01-18T12:39:17.633Z,5.70
2019-01-18T12:41:48.377Z,3.77
2019-01-18T12:44:18.513Z,2.40
2019-01-18T12:46:48.677Z,4.47
2019-01-18T12:49:19.381Z,2.10
2019-01-18T12:51:51.047Z,4.37
2019-01-18T12:54:21.265Z,1.97
2019-01-18T12:56:56.906Z,2.70
2019-01-18T12:59:28.063Z,3.10
2019-01-18T13:01:58.866Z,1.50
2019-01-18T13:04:29.650Z,1.90
2019-01-18T13:07:02.362Z,2.23
2019-01-18T13:09:33.906Z,2.13
2019-01-18T13:12:05.990Z,2.07
2019-01-18T13:14:39.417Z,3.87
2019-01-18T13:17:12.714Z,3.07
2019-01-18T13:19:44.300Z,2.80
2019-01-18T13:22:14.489Z,4.50
2019-01-18T13:24:45.915Z,3.07
2019-01-18T13:27:16.846Z,3.37
2019-01-18T13:29:48.716Z,3.00
2019-01-18T13:32:20.137Z,3.57
2019-01-18T13:34:51.353Z,2.60
2019-01-18T13:37:22.179Z,6.07
2019-01-18T13:39:52.790Z,4.03
2019-01-18T13:42:29.128Z,2.50
2019-01-18T13:44:59.602Z,4.57
2019-01-18T13:47:29.983Z,5.00
2019-01-18T13:50:00.643Z,2.30
2019-01-18T13:52:50.055Z,1.97
2019-01-18T13:55:22.752Z,4.90
2019-01-18T13:57:53.823Z,3.00
2019-01-18T14:00:24.172Z,6.17
2019-01-18T14:02:59.061Z,3.30
2019-01-18T14:05:30.216Z,8.70
2019-01-18T14:08:01.174Z,3.20
2019-01-18T14:10:32.031Z,4.70
2019-01-18T14:13:12.902Z,2.20
2019-01-18T14:15:43.349Z,2.53
2019-01-18T14:18:13.688Z,3.43
2019-01-18T14:20:43.957Z,2.27
2019-01-18T14:23:14.621Z,2.63
2019-01-18T14:25:45.329Z,2.90
2019-01-18T14:28:15.519Z,4.27
2019-01-18T14:30:45.821Z,3.30
2019-01-18T14:33:16.574Z,2.20
2019-01-18T14:35:47.209Z,2.00
2019-01-18T14:38:17.520Z,1.73
2019-01-18T14:40:48.056Z,5.93
2019-01-18T14:43:18.685Z,3.10
2019-01-18T14:45:49.085Z,4.00
2019-01-18T14:48:19.570Z,2.40
2019-01-18T14:50:49.769Z,2.50
2019-01-18T14:53:20.843Z,1.60
2019-01-18T14:55:51.401Z,2.40
2019-01-18T14:58:24.609Z,2.77
2019-01-18T15:00:53.773Z,6.97
2019-01-18T15:03:24.421Z,3.87
2019-01-18T15:05:55.081Z,5.07
2019-01-18T15:08:25.705Z,2.90
2019-01-18T15:10:55.906Z,2.73
2019-01-18T15:13:26.027Z,3.70
2019-01-18T15:15:56.045Z,3.87
2019-01-18T15:18:26.321Z,3.37
2019-01-18T15:20:56.478Z,6.50
2019-01-18T15:23:26.829Z,3.47
2019-01-18T15:25:57.104Z,6.17
2019-01-18T15:28:27.689Z,4.13
2019-01-18T15:30:57.841Z,4.80
2019-01-18T15:33:28.135Z,2.60
2019-01-18T15:35:58.487Z,5.00
2019-01-18T15:38:28.645Z,3.00
2019-01-18T15:40:59.631Z,7.40
2019-01-18T15:43:30.055Z,5.90
2019-01-18T15:46:01.770Z,4.23
2019-01-18T15:48:32.061Z,6.77
2019-01-18T15:51:02.242Z,2.63
2019-01-18T15:53:32.361Z,3.80
2019-01-18T15:56:03.075Z,3.10
2019-01-18T15:58:33.379Z,4.50
2019-01-18T16:01:03.624Z,3.67
2019-01-18T16:03:34.603Z,4.13
2019-01-18T16:06:05.033Z,3.93
2019-01-18T16:08:37.764Z,6.47
2019-01-18T16:11:07.937Z,6.10
2019-01-18T16:13:38.237Z,5.77
2019-01-18T16:16:45.064Z,7.53
2019-01-18T16:19:15.100Z,3.83
2019-01-18T16:21:45.589Z,8.33
2019-01-18T16:24:16.823Z,4.50
2019-01-18T16:26:47.358Z,6.40
2019-01-18T16:29:17.441Z,2.90
2019-01-18T16:31:48.007Z,3.30
2019-01-18T16:34:18.102Z,5.60
2019-01-18T16:36:48.154Z,4.60
2019-01-18T16:39:19.322Z,3.83
2019-01-18T16:41:49.650Z,3.80
2019-01-18T16:44:19.746Z,6.77
2019-01-18T16:46:49.942Z,4.00
2019-01-18T16:49:20.091Z,6.70
2019-01-18T16:51:50.193Z,2.93
2019-01-18T16:54:20.762Z,9.70
2019-01-18T16:56:54.558Z,6.03
2019-01-18T16:59:25.100Z,10.80
2019-01-18T17:01:55.541Z,3.90
2019-01-18T17:04:25.922Z,6.83
2019-01-18T17:06:56.113Z,5.47
2019-01-18T17:09:26.473Z,7.20
2019-01-18T17:11:56.997Z,5.83
2019-01-18T17:14:29.202Z,7.97
2019-01-18T17:17:01.888Z,6.47
2019-01-18T17:19:33.275Z,7.53
2019-01-18T17:22:04.997Z,7.83
2019-01-18T17:24:39.325Z,9.07
2019-01-18T17:27:11.130Z,7.37
2019-01-18T17:29:45.861Z,9.70
2019-01-18T17:32:20.078Z,8.87
2019-01-18T17:34:57.683Z,8.07
2019-01-18T17:37:36.485Z,6.13
2019-01-18T17:40:31.326Z,5.93
2019-01-18T17:43:57.030Z,7.53
2019-01-18T17:47:16.905Z,6.20
2019-01-18T17:50:32.005Z,5.30
2019-01-18T17:53:35.640Z,9.07
2019-01-18T17:56:55.696Z,8.67
2019-01-18T18:00:13.298Z,5.23
2019-01-18T18:03:36.597Z,9.93
2019-01-18T18:06:41.336Z,5.50
2019-01-18T18:09:48.229Z,6.07
2019-01-18T18:13:27.363Z,14.90
2019-01-18T18:16:26.065Z,11.50
2019-01-18T18:19:16.247Z,9.83
2019-01-18T18:22:33.379Z,9.73
2019-01-18T18:25:34.122Z,8.63
2019-01-18T18:29:14.287Z,9.73
2019-01-18T18:32:22.986Z,9.67
2019-01-18T18:35:29.582Z,12.30
2019-01-18T18:38:45.567Z,11.93
2019-01-18T18:41:55.754Z,8.03
2019-01-18T18:45:01.800Z,11.00
2019-01-18T18:48:26.600Z,12.77
2019-01-18T18:51:32.020Z,15.50
2019-01-18T18:54:37.918Z,10.33
2019-01-18T18:57:52.169Z,17.40
2019-01-18T19:00:55.175Z,13.17
2019-01-18T19:04:09.635Z,10.73
2019-01-18T19:07:15.178Z,9.40
2019-01-18T19:10:29.228Z,11.77
2019-01-18T19:13:39.089Z,11.83
2019-01-18T19:16:33.848Z,15.97
2019-01-18T19:19:55.610Z,15.50
2019-01-18T19:22:41.025Z,19.73
2019-01-18T19:25:45.706Z,14.37
2019-01-18T19:28:58.768Z,14.10
2019-01-18T19:32:04.300Z,15.97
2019-01-18T19:35:03.521Z,15.20
2019-01-18T19:38:15.385Z,13.83
2019-01-18T19:41:16.763Z,16.27
2019-01-18T19:44:28.465Z,16.10
2019-01-18T19:47:30.937Z,17.50
2019-01-18T19:50:53.807Z,17.90
2019-01-18T19:54:00.932Z,17.83
2019-01-18T19:56:58.925Z,19.43
2019-01-18T20:00:07.478Z,20.20
2019-01-18T20:03:30.352Z,13.97
2019-01-18T20:06:37.521Z,17.70
2019-01-18T20:09:33.014Z,17.53
2019-01-18T20:12:52.215Z,20.73
2019-01-18T20:15:59.566Z,12.90
2019-01-18T20:19:14.061Z,17.40
2019-01-18T20:22:17.826Z,22.60
2019-01-18T20:25:24.961Z,27.37
2019-01-18T20:29:03.487Z,30.63
2019-01-18T20:32:13.188Z,35.17
2019-01-18T20:35:29.234Z,26.60
2019-01-18T20:38:49.450Z,25.93
2019-01-18T20:42:02.871Z,22.67
2019-01-18T20:45:06.172Z,20.20
2019-01-18T20:48:10.901Z,25.60
2019-01-18T20:51:26.853Z,26.30
2019-01-18T20:54:35.125Z,19.20
2019-01-18T20:57:42.225Z,21.03
2019-01-18T21:00:46.838Z,24.80
2019-01-18T21:04:03.908Z,33.50
2019-01-18T21:06:59.478Z,34.67
2019-01-18T21:10:01.112Z,39.70
2019-01-18T21:13:12.117Z,50.87
2019-01-18T21:16:08.647Z,47.77
2019-01-18T21:19:19.635Z,52.40
2019-01-18T21:22:25.346Z,42.87
2019-01-18T21:25:32.152Z,47.83
2019-01-18T21:28:45.156Z,53.60
2019-01-18T21:31:49.533Z,50.90
2019-01-18T21:34:51.898Z,48.70
2019-01-18T21:38:08.715Z,61.40
2019-01-18T21:41:19.983Z,52.93
2019-01-18T21:44:44.513Z,49.97
2019-01-18T21:47:42.662Z,48.17
2019-01-18T21:50:34.143Z,45.47
2019-01-18T21:53:27.662Z,45.10
2019-01-18T21:56:54.124Z,39.77
2019-01-18T21:59:53.877Z,37.40
2019-01-18T22:02:36.013Z,37.13
2019-01-18T22:05:21.781Z,32.90
2019-01-18T22:08:41.905Z,37.47
2019-01-18T22:11:38.848Z,34.80
2019-01-18T22:14:49.626Z,34.80
2019-01-18T22:17:49.074Z,25.80
2019-01-18T22:20:35.715Z,27.47
2019-01-18T22:23:33.501Z,23.47
2019-01-18T22:26:36.192Z,25.87
2019-01-18T22:29:50.025Z,29.87
2019-01-18T22:32:48.323Z,26.20
2019-01-18T22:35:49.649Z,34.10
2019-01-18T22:39:05.459Z,37.77
2019-01-18T22:42:30.573Z,44.93
2019-01-18T22:45:50.461Z,44.03
2019-01-18T22:49:25.802Z,42.70
2019-01-18T22:52:31.556Z,42.17
2019-01-18T22:55:19.817Z,44.50
2019-01-18T22:58:36.865Z,45.60
2019-01-18T23:01:41.466Z,42.37
2019-01-18T23:05:01.509Z,43.57
2019-01-18T23:08:11.256Z,34.53
2019-01-18T23:11:25.278Z,37.87
2019-01-18T23:14:11.031Z,32.23
2019-01-18T23:17:34.154Z,28.60
2019-01-18T23:20:40.268Z,36.90
2019-01-18T23:23:46.778Z,39.60
2019-01-18T23:27:17.520Z,37.63
2019-01-18T23:30:07.469Z,41.07
2019-01-18T23:33:03.668Z,32.33
2019-01-18T23:36:08.209Z,33.13
2019-01-18T23:39:13.302Z,32.37
2019-01-18T23:42:25.338Z,30.27
2019-01-18T23:45:17.746Z,25.20
2019-01-18T23:48:30.787Z,21.83
2019-01-18T23:51:32.035Z,26.00
2019-01-18T23:54:42.069Z,26.07
2019-01-18T23:58:05.776Z,30.40
